sensor_id;sensor_type;location;lat;lon;timestamp;P1;durP1;ratioP1;P2;durP2;ratioP2
12493;SDS011;8260;51.422;6.786;2023-03-09T00:00:48;31.83;;;18.40;;
12493;SDS011;8260;51.422;6.786;2023-03-09T00:03:17;30.77;;;18.93;;
12493;SDS011;8260;51.422;6.786;2023-03-09T00:05:52;29.43;;;18.33;;
12493;SDS011;8260;51.422;6.786;2023-03-09T00:08:21;31.57;;;18.27;;
12493;SDS011;8260;51.422;6.786;2023-03-09T00:10:50;28.30;;;17.27;;
12493;SDS011;8260;51.422;6.786;2023-03-09T00:13:18;29.87;;;18.10;;
12493;SDS011;8260;51.422;6.786;2023-03-09T00:15:47;28.70;;;18.43;;
12493;SDS011;8260;51.422;6.786;2023-03-09T00:18:17;30.60;;;18.70;;
12493;SDS011;8260;51.422;6.786;2023-03-09T00:20:46;30.73;;;18.47;;
12493;SDS011;8260;51.422;6.786;2023-03-09T00:23:15;30.03;;;17.07;;
12493;SDS011;8260;51.422;6.786;2023-03-09T00:25:45;31.63;;;20.07;;
12493;SDS011;8260;51.422;6.786;2023-03-09T00:28:14;32.23;;;18.70;;
12493;SDS011;8260;51.422;6.786;2023-03-09T00:30:42;31.00;;;18.87;;
12493;SDS011;8260;51.422;6.786;2023-03-09T00:33:11;33.70;;;19.67;;
12493;SDS011;8260;51.422;6.786;2023-03-09T00:35:39;33.20;;;19.57;;
12493;SDS011;8260;51.422;6.786;2023-03-09T00:38:07;38.87;;;21.07;;
12493;SDS011;8260;51.422;6.786;2023-03-09T00:40:37;37.77;;;20.83;;
12493;SDS011;8260;51.422;6.786;2023-03-09T00:43:06;34.77;;;20.13;;
12493;SDS011;8260;51.422;6.786;2023-03-09T00:45:34;33.87;;;19.83;;
12493;SDS011;8260;51.422;6.786;2023-03-09T00:48:02;36.90;;;20.67;;
12493;SDS011;8260;51.422;6.786;2023-03-09T00:50:31;36.10;;;20.60;;
12493;SDS011;8260;51.422;6.786;2023-03-09T00:53:00;40.80;;;22.27;;
12493;SDS011;8260;51.422;6.786;2023-03-09T00:55:29;40.13;;;22.57;;
12493;SDS011;8260;51.422;6.786;2023-03-09T00:57:59;46.97;;;25.77;;
12493;SDS011;8260;51.422;6.786;2023-03-09T01:00:28;45.63;;;24.60;;
12493;SDS011;8260;51.422;6.786;2023-03-09T01:02:58;50.30;;;24.67;;
12493;SDS011;8260;51.422;6.786;2023-03-09T01:05:27;52.67;;;26.13;;
12493;SDS011;8260;51.422;6.786;2023-03-09T01:07:55;52.73;;;25.43;;
12493;SDS011;8260;51.422;6.786;2023-03-09T01:10:24;50.97;;;25.70;;
12493;SDS011;8260;51.422;6.786;2023-03-09T01:12:52;54.13;;;26.60;;
12493;SDS011;8260;51.422;6.786;2023-03-09T01:15:23;53.57;;;27.33;;
12493;SDS011;8260;51.422;6.786;2023-03-09T01:17:51;52.90;;;27.40;;
12493;SDS011;8260;51.422;6.786;2023-03-09T01:20:19;57.20;;;28.40;;
12493;SDS011;8260;51.422;6.786;2023-03-09T01:22:48;57.27;;;28.47;;
12493;SDS011;8260;51.422;6.786;2023-03-09T01:25:16;58.70;;;28.30;;
12493;SDS011;8260;51.422;6.786;2023-03-09T01:27:45;62.13;;;27.90;;
12493;SDS011;8260;51.422;6.786;2023-03-09T01:30:14;57.10;;;27.10;;
12493;SDS011;8260;51.422;6.786;2023-03-09T01:32:44;54.83;;;28.07;;
12493;SDS011;8260;51.422;6.786;2023-03-09T01:35:12;55.67;;;27.80;;
12493;SDS011;8260;51.422;6.786;2023-03-09T01:37:41;54.10;;;27.93;;
12493;SDS011;8260;51.422;6.786;2023-03-09T01:40:10;54.17;;;27.50;;
12493;SDS011;8260;51.422;6.786;2023-03-09T01:42:42;60.00;;;28.37;;
12493;SDS011;8260;51.422;6.786;2023-03-09T01:47:58;54.77;;;27.67;;
12493;SDS011;8260;51.422;6.786;2023-03-09T01:50:27;58.37;;;27.40;;
12493;SDS011;8260;51.422;6.786;2023-03-09T01:52:57;57.90;;;28.10;;
12493;SDS011;8260;51.422;6.786;2023-03-09T01:55:29;56.37;;;26.97;;
12493;SDS011;8260;51.422;6.786;2023-03-09T01:57:59;55.67;;;27.50;;
12493;SDS011;8260;51.422;6.786;2023-03-09T02:00:29;50.53;;;26.70;;
12493;SDS011;8260;51.422;6.786;2023-03-09T02:03:00;53.77;;;27.53;;
12493;SDS011;8260;51.422;6.786;2023-03-09T02:05:30;55.90;;;27.97;;
12493;SDS011;8260;51.422;6.786;2023-03-09T02:08:01;50.50;;;26.10;;
12493;SDS011;8260;51.422;6.786;2023-03-09T02:10:30;48.87;;;25.73;;
12493;SDS011;8260;51.422;6.786;2023-03-09T02:13:00;55.83;;;26.43;;
12493;SDS011;8260;51.422;6.786;2023-03-09T02:15:29;51.97;;;26.70;;
12493;SDS011;8260;51.422;6.786;2023-03-09T02:17:59;47.60;;;26.23;;
12493;SDS011;8260;51.422;6.786;2023-03-09T02:20:29;46.23;;;25.70;;
12493;SDS011;8260;51.422;6.786;2023-03-09T02:23:00;49.60;;;25.70;;
12493;SDS011;8260;51.422;6.786;2023-03-09T02:25:30;48.23;;;26.73;;
12493;SDS011;8260;51.422;6.786;2023-03-09T02:28:02;43.97;;;24.27;;
12493;SDS011;8260;51.422;6.786;2023-03-09T02:30:32;46.10;;;24.60;;
12493;SDS011;8260;51.422;6.786;2023-03-09T02:33:04;45.10;;;24.73;;
12493;SDS011;8260;51.422;6.786;2023-03-09T02:35:33;44.00;;;23.57;;
12493;SDS011;8260;51.422;6.786;2023-03-09T02:38:02;45.13;;;23.00;;
12493;SDS011;8260;51.422;6.786;2023-03-09T02:40:31;40.83;;;22.90;;
12493;SDS011;8260;51.422;6.786;2023-03-09T02:43:02;41.93;;;23.67;;
12493;SDS011;8260;51.422;6.786;2023-03-09T02:45:31;43.90;;;24.63;;
12493;SDS011;8260;51.422;6.786;2023-03-09T02:48:00;43.03;;;24.77;;
12493;SDS011;8260;51.422;6.786;2023-03-09T02:50:29;48.00;;;25.47;;
12493;SDS011;8260;51.422;6.786;2023-03-09T02:52:57;40.13;;;24.00;;
12493;SDS011;8260;51.422;6.786;2023-03-09T02:55:26;38.00;;;22.70;;
12493;SDS011;8260;51.422;6.786;2023-03-09T02:57:55;42.20;;;23.57;;
12493;SDS011;8260;51.422;6.786;2023-03-09T03:00:25;39.97;;;23.30;;
12493;SDS011;8260;51.422;6.786;2023-03-09T03:02:55;38.57;;;23.10;;
12493;SDS011;8260;51.422;6.786;2023-03-09T03:05:23;42.93;;;23.40;;
12493;SDS011;8260;51.422;6.786;2023-03-09T03:07:52;38.53;;;23.20;;
12493;SDS011;8260;51.422;6.786;2023-03-09T03:10:20;42.30;;;22.83;;
12493;SDS011;8260;51.422;6.786;2023-03-09T03:12:49;38.37;;;22.57;;
12493;SDS011;8260;51.422;6.786;2023-03-09T03:15:17;39.50;;;22.23;;
12493;SDS011;8260;51.422;6.786;2023-03-09T03:17:47;38.77;;;23.37;;
12493;SDS011;8260;51.422;6.786;2023-03-09T03:20:15;39.20;;;23.07;;
12493;SDS011;8260;51.422;6.786;2023-03-09T03:22:44;45.47;;;24.60;;
12493;SDS011;8260;51.422;6.786;2023-03-09T03:25:12;37.53;;;21.50;;
12493;SDS011;8260;51.422;6.786;2023-03-09T03:27:42;38.20;;;22.00;;
12493;SDS011;8260;51.422;6.786;2023-03-09T03:30:13;39.00;;;22.13;;
12493;SDS011;8260;51.422;6.786;2023-03-09T03:32:42;36.97;;;21.87;;
12493;SDS011;8260;51.422;6.786;2023-03-09T03:35:12;37.87;;;21.80;;
12493;SDS011;8260;51.422;6.786;2023-03-09T03:37:40;38.78;;;22.35;;
12493;SDS011;8260;51.422;6.786;2023-03-09T03:40:09;39.17;;;22.13;;
12493;SDS011;8260;51.422;6.786;2023-03-09T03:42:38;34.73;;;21.83;;
12493;SDS011;8260;51.422;6.786;2023-03-09T03:45:06;37.53;;;21.67;;
12493;SDS011;8260;51.422;6.786;2023-03-09T03:47:35;34.37;;;21.07;;
12493;SDS011;8260;51.422;6.786;2023-03-09T03:50:04;37.37;;;21.30;;
12493;SDS011;8260;51.422;6.786;2023-03-09T03:52:33;36.30;;;20.90;;
12493;SDS011;8260;51.422;6.786;2023-03-09T03:55:02;37.33;;;22.77;;
12493;SDS011;8260;51.422;6.786;2023-03-09T03:57:33;35.53;;;20.63;;
12493;SDS011;8260;51.422;6.786;2023-03-09T04:00:02;36.93;;;21.23;;
12493;SDS011;8260;51.422;6.786;2023-03-09T04:02:35;35.87;;;22.70;;
12493;SDS011;8260;51.422;6.786;2023-03-09T04:05:04;40.77;;;23.00;;
12493;SDS011;8260;51.422;6.786;2023-03-09T04:07:34;32.50;;;21.30;;
12493;SDS011;8260;51.422;6.786;2023-03-09T04:10:03;34.60;;;21.73;;
12493;SDS011;8260;51.422;6.786;2023-03-09T04:12:31;38.03;;;21.93;;
12493;SDS011;8260;51.422;6.786;2023-03-09T04:15:00;34.87;;;21.60;;
12493;SDS011;8260;51.422;6.786;2023-03-09T04:17:28;39.23;;;22.63;;
12493;SDS011;8260;51.422;6.786;2023-03-09T04:19:57;38.10;;;23.00;;
12493;SDS011;8260;51.422;6.786;2023-03-09T04:22:25;34.87;;;22.00;;
12493;SDS011;8260;51.422;6.786;2023-03-09T04:24:55;37.83;;;23.40;;
12493;SDS011;8260;51.422;6.786;2023-03-09T04:27:23;39.37;;;22.77;;
12493;SDS011;8260;51.422;6.786;2023-03-09T04:29:52;37.63;;;22.47;;
12493;SDS011;8260;51.422;6.786;2023-03-09T04:32:20;37.43;;;22.77;;
12493;SDS011;8260;51.422;6.786;2023-03-09T04:34:49;42.80;;;23.30;;
12493;SDS011;8260;51.422;6.786;2023-03-09T04:37:17;40.37;;;22.80;;
12493;SDS011;8260;51.422;6.786;2023-03-09T04:39:45;40.13;;;22.47;;
12493;SDS011;8260;51.422;6.786;2023-03-09T04:42:15;38.00;;;22.13;;
12493;SDS011;8260;51.422;6.786;2023-03-09T04:44:44;36.80;;;22.60;;
12493;SDS011;8260;51.422;6.786;2023-03-09T04:47:12;40.87;;;22.20;;
12493;SDS011;8260;51.422;6.786;2023-03-09T04:49:41;39.47;;;22.07;;
12493;SDS011;8260;51.422;6.786;2023-03-09T04:52:09;43.70;;;23.33;;
12493;SDS011;8260;51.422;6.786;2023-03-09T04:54:38;44.77;;;23.27;;
12493;SDS011;8260;51.422;6.786;2023-03-09T04:57:06;43.77;;;23.97;;
12493;SDS011;8260;51.422;6.786;2023-03-09T04:59:36;45.23;;;23.97;;
12493;SDS011;8260;51.422;6.786;2023-03-09T05:02:04;43.27;;;24.40;;
12493;SDS011;8260;51.422;6.786;2023-03-09T05:04:33;43.50;;;23.63;;
12493;SDS011;8260;51.422;6.786;2023-03-09T05:07:02;44.87;;;24.37;;
12493;SDS011;8260;51.422;6.786;2023-03-09T05:09:31;42.60;;;23.50;;
12493;SDS011;8260;51.422;6.786;2023-03-09T05:11:59;46.93;;;24.53;;
12493;SDS011;8260;51.422;6.786;2023-03-09T05:14:28;48.37;;;25.13;;
12493;SDS011;8260;51.422;6.786;2023-03-09T05:16:58;45.90;;;23.83;;
12493;SDS011;8260;51.422;6.786;2023-03-09T05:19:26;46.17;;;25.30;;
12493;SDS011;8260;51.422;6.786;2023-03-09T05:21:55;42.93;;;24.00;;
12493;SDS011;8260;51.422;6.786;2023-03-09T05:24:23;43.13;;;24.90;;
12493;SDS011;8260;51.422;6.786;2023-03-09T05:26:52;45.33;;;24.90;;
12493;SDS011;8260;51.422;6.786;2023-03-09T05:29:20;44.57;;;25.67;;
12493;SDS011;8260;51.422;6.786;2023-03-09T05:31:49;47.77;;;26.57;;
12493;SDS011;8260;51.422;6.786;2023-03-09T05:34:18;47.53;;;24.90;;
12493;SDS011;8260;51.422;6.786;2023-03-09T05:36:47;44.10;;;25.13;;
12493;SDS011;8260;51.422;6.786;2023-03-09T05:39:17;45.83;;;24.90;;
12493;SDS011;8260;51.422;6.786;2023-03-09T05:41:46;43.20;;;25.57;;
12493;SDS011;8260;51.422;6.786;2023-03-09T05:44:16;46.63;;;25.57;;
12493;SDS011;8260;51.422;6.786;2023-03-09T05:46:44;43.27;;;24.47;;
12493;SDS011;8260;51.422;6.786;2023-03-09T05:49:13;49.33;;;26.17;;
12493;SDS011;8260;51.422;6.786;2023-03-09T05:51:43;48.80;;;26.13;;
12493;SDS011;8260;51.422;6.786;2023-03-09T05:54:11;48.70;;;25.67;;
12493;SDS011;8260;51.422;6.786;2023-03-09T05:56:39;53.00;;;27.10;;
12493;SDS011;8260;51.422;6.786;2023-03-09T05:59:08;50.57;;;26.57;;
12493;SDS011;8260;51.422;6.786;2023-03-09T06:01:36;47.70;;;26.33;;
12493;SDS011;8260;51.422;6.786;2023-03-09T06:04:05;47.37;;;25.20;;
12493;SDS011;8260;51.422;6.786;2023-03-09T06:06:33;49.10;;;25.33;;
12493;SDS011;8260;51.422;6.786;2023-03-09T06:09:03;49.70;;;25.67;;
12493;SDS011;8260;51.422;6.786;2023-03-09T06:11:32;52.90;;;27.57;;
12493;SDS011;8260;51.422;6.786;2023-03-09T06:14:00;45.30;;;24.43;;
12493;SDS011;8260;51.422;6.786;2023-03-09T06:16:28;50.67;;;25.93;;
12493;SDS011;8260;51.422;6.786;2023-03-09T06:18:57;51.30;;;26.67;;
12493;SDS011;8260;51.422;6.786;2023-03-09T06:21:25;48.80;;;26.43;;
12493;SDS011;8260;51.422;6.786;2023-03-09T06:23:54;50.03;;;26.10;;
12493;SDS011;8260;51.422;6.786;2023-03-09T06:26:24;49.80;;;27.00;;
12493;SDS011;8260;51.422;6.786;2023-03-09T06:28:53;53.43;;;28.03;;
12493;SDS011;8260;51.422;6.786;2023-03-09T06:31:21;49.10;;;26.40;;
12493;SDS011;8260;51.422;6.786;2023-03-09T06:33:49;48.43;;;26.37;;
12493;SDS011;8260;51.422;6.786;2023-03-09T06:36:18;49.63;;;26.27;;
12493;SDS011;8260;51.422;6.786;2023-03-09T06:38:46;56.13;;;27.47;;
12493;SDS011;8260;51.422;6.786;2023-03-09T06:41:15;52.03;;;26.80;;
12493;SDS011;8260;51.422;6.786;2023-03-09T06:43:46;53.47;;;25.37;;
12493;SDS011;8260;51.422;6.786;2023-03-09T06:46:14;49.70;;;26.20;;
12493;SDS011;8260;51.422;6.786;2023-03-09T06:48:43;53.33;;;27.13;;
12493;SDS011;8260;51.422;6.786;2023-03-09T06:51:11;50.57;;;26.07;;
12493;SDS011;8260;51.422;6.786;2023-03-09T06:53:40;56.57;;;27.97;;
12493;SDS011;8260;51.422;6.786;2023-03-09T06:56:11;49.83;;;25.37;;
12493;SDS011;8260;51.422;6.786;2023-03-09T06:58:39;52.97;;;26.47;;
12493;SDS011;8260;51.422;6.786;2023-03-09T07:01:10;50.53;;;26.80;;
12493;SDS011;8260;51.422;6.786;2023-03-09T07:03:39;49.60;;;25.90;;
12493;SDS011;8260;51.422;6.786;2023-03-09T07:06:08;50.03;;;25.03;;
12493;SDS011;8260;51.422;6.786;2023-03-09T07:08:36;49.63;;;26.23;;
12493;SDS011;8260;51.422;6.786;2023-03-09T07:11:05;50.58;;;26.33;;
12493;SDS011;8260;51.422;6.786;2023-03-09T07:13:33;48.60;;;25.67;;
12493;SDS011;8260;51.422;6.786;2023-03-09T07:16:02;45.38;;;24.48;;
12493;SDS011;8260;51.422;6.786;2023-03-09T07:18:33;43.20;;;23.80;;
12493;SDS011;8260;51.422;6.786;2023-03-09T07:21:02;47.90;;;24.70;;
12493;SDS011;8260;51.422;6.786;2023-03-09T07:23:30;46.37;;;23.80;;
12493;SDS011;8260;51.422;6.786;2023-03-09T07:25:59;46.77;;;23.53;;
12493;SDS011;8260;51.422;6.786;2023-03-09T07:28:28;45.87;;;24.17;;
12493;SDS011;8260;51.422;6.786;2023-03-09T07:30:56;43.70;;;24.80;;
12493;SDS011;8260;51.422;6.786;2023-03-09T07:33:25;40.37;;;22.30;;
12493;SDS011;8260;51.422;6.786;2023-03-09T07:35:55;43.13;;;22.93;;
12493;SDS011;8260;51.422;6.786;2023-03-09T07:38:23;46.97;;;24.90;;
12493;SDS011;8260;51.422;6.786;2023-03-09T07:40:52;42.13;;;22.40;;
12493;SDS011;8260;51.422;6.786;2023-03-09T07:43:20;43.70;;;21.90;;
12493;SDS011;8260;51.422;6.786;2023-03-09T07:45:49;39.33;;;22.43;;
12493;SDS011;8260;51.422;6.786;2023-03-09T07:48:17;46.60;;;23.73;;
12493;SDS011;8260;51.422;6.786;2023-03-09T07:50:45;38.78;;;21.40;;
12493;SDS011;8260;51.422;6.786;2023-03-09T07:53:15;42.33;;;23.65;;
12493;SDS011;8260;51.422;6.786;2023-03-09T07:55:44;44.65;;;23.23;;
12493;SDS011;8260;51.422;6.786;2023-03-09T07:58:13;44.57;;;23.60;;
12493;SDS011;8260;51.422;6.786;2023-03-09T08:00:42;44.70;;;24.45;;
12493;SDS011;8260;51.422;6.786;2023-03-09T08:03:10;45.03;;;23.23;;
12493;SDS011;8260;51.422;6.786;2023-03-09T08:05:39;44.90;;;23.80;;
12493;SDS011;8260;51.422;6.786;2023-03-09T08:08:08;49.03;;;25.17;;
12493;SDS011;8260;51.422;6.786;2023-03-09T08:10:39;47.25;;;23.70;;
12493;SDS011;8260;51.422;6.786;2023-03-09T08:13:09;47.95;;;24.88;;
12493;SDS011;8260;51.422;6.786;2023-03-09T08:15:37;44.22;;;24.02;;
12493;SDS011;8260;51.422;6.786;2023-03-09T08:18:06;47.78;;;23.85;;
12493;SDS011;8260;51.422;6.786;2023-03-09T08:20:34;48.35;;;25.98;;
12493;SDS011;8260;51.422;6.786;2023-03-09T08:23:03;48.13;;;24.85;;
12493;SDS011;8260;51.422;6.786;2023-03-09T08:25:32;47.03;;;24.63;;
12493;SDS011;8260;51.422;6.786;2023-03-09T08:28:02;45.95;;;23.70;;
12493;SDS011;8260;51.422;6.786;2023-03-09T08:30:31;43.50;;;25.42;;
12493;SDS011;8260;51.422;6.786;2023-03-09T08:32:59;48.70;;;25.88;;
12493;SDS011;8260;51.422;6.786;2023-03-09T08:35:28;49.20;;;24.88;;
12493;SDS011;8260;51.422;6.786;2023-03-09T08:37:58;45.03;;;23.20;;
12493;SDS011;8260;51.422;6.786;2023-03-09T08:40:27;43.15;;;23.40;;
12493;SDS011;8260;51.422;6.786;2023-03-09T08:42:56;42.30;;;24.38;;
12493;SDS011;8260;51.422;6.786;2023-03-09T08:45:25;43.75;;;23.52;;
12493;SDS011;8260;51.422;6.786;2023-03-09T08:47:54;47.90;;;23.83;;
12493;SDS011;8260;51.422;6.786;2023-03-09T08:50:23;47.90;;;24.88;;
12493;SDS011;8260;51.422;6.786;2023-03-09T08:52:51;48.20;;;23.85;;
12493;SDS011;8260;51.422;6.786;2023-03-09T08:55:20;45.58;;;22.88;;
12493;SDS011;8260;51.422;6.786;2023-03-09T08:57:48;49.47;;;25.98;;
12493;SDS011;8260;51.422;6.786;2023-03-09T09:00:18;49.22;;;26.38;;
12493;SDS011;8260;51.422;6.786;2023-03-09T09:02:48;48.20;;;25.35;;
12493;SDS011;8260;51.422;6.786;2023-03-09T09:05:17;45.25;;;25.52;;
12493;SDS011;8260;51.422;6.786;2023-03-09T09:07:45;52.35;;;25.33;;
12493;SDS011;8260;51.422;6.786;2023-03-09T09:10:14;50.95;;;25.13;;
12493;SDS011;8260;51.422;6.786;2023-03-09T09:13:00;48.45;;;24.95;;
12493;SDS011;8260;51.422;6.786;2023-03-09T09:15:29;47.63;;;24.88;;
12493;SDS011;8260;51.422;6.786;2023-03-09T09:17:59;53.83;;;27.48;;
12493;SDS011;8260;51.422;6.786;2023-03-09T09:20:27;52.35;;;26.95;;
12493;SDS011;8260;51.422;6.786;2023-03-09T09:22:56;51.65;;;26.48;;
12493;SDS011;8260;51.422;6.786;2023-03-09T09:25:25;55.00;;;26.83;;
12493;SDS011;8260;51.422;6.786;2023-03-09T09:27:53;51.72;;;28.08;;
12493;SDS011;8260;51.422;6.786;2023-03-09T09:30:22;56.17;;;28.33;;
12493;SDS011;8260;51.422;6.786;2023-03-09T09:32:51;54.05;;;27.48;;
12493;SDS011;8260;51.422;6.786;2023-03-09T09:35:21;56.42;;;30.13;;
12493;SDS011;8260;51.422;6.786;2023-03-09T09:37:49;60.88;;;29.50;;
12493;SDS011;8260;51.422;6.786;2023-03-09T09:40:20;60.45;;;29.60;;
12493;SDS011;8260;51.422;6.786;2023-03-09T09:42:49;62.45;;;29.35;;
12493;SDS011;8260;51.422;6.786;2023-03-09T09:45:24;60.70;;;29.27;;
12493;SDS011;8260;51.422;6.786;2023-03-09T09:47:53;55.90;;;28.17;;
12493;SDS011;8260;51.422;6.786;2023-03-09T09:50:26;62.75;;;30.67;;
12493;SDS011;8260;51.422;6.786;2023-03-09T09:52:57;54.58;;;27.67;;
12493;SDS011;8260;51.422;6.786;2023-03-09T09:55:28;55.67;;;27.88;;
12493;SDS011;8260;51.422;6.786;2023-03-09T09:57:59;57.97;;;29.98;;
12493;SDS011;8260;51.422;6.786;2023-03-09T10:00:30;58.10;;;28.70;;
12493;SDS011;8260;51.422;6.786;2023-03-09T10:03:05;61.25;;;31.33;;
12493;SDS011;8260;51.422;6.786;2023-03-09T10:05:39;58.30;;;29.25;;
12493;SDS011;8260;51.422;6.786;2023-03-09T10:08:14;63.53;;;31.13;;
12493;SDS011;8260;51.422;6.786;2023-03-09T10:10:44;60.78;;;31.63;;
12493;SDS011;8260;51.422;6.786;2023-03-09T10:13:14;58.70;;;29.75;;
12493;SDS011;8260;51.422;6.786;2023-03-09T10:15:43;61.88;;;31.55;;
12493;SDS011;8260;51.422;6.786;2023-03-09T10:18:18;63.75;;;32.15;;
12493;SDS011;8260;51.422;6.786;2023-03-09T10:20:52;74.82;;;37.60;;
12493;SDS011;8260;51.422;6.786;2023-03-09T10:23:22;75.43;;;36.40;;
12493;SDS011;8260;51.422;6.786;2023-03-09T10:25:52;76.63;;;37.00;;
12493;SDS011;8260;51.422;6.786;2023-03-09T10:28:21;68.63;;;34.10;;
12493;SDS011;8260;51.422;6.786;2023-03-09T10:30:53;69.57;;;34.78;;
12493;SDS011;8260;51.422;6.786;2023-03-09T10:33:25;64.70;;;32.38;;
12493;SDS011;8260;51.422;6.786;2023-03-09T10:35:58;66.20;;;31.88;;
12493;SDS011;8260;51.422;6.786;2023-03-09T10:38:28;65.05;;;33.17;;
12493;SDS011;8260;51.422;6.786;2023-03-09T10:40:56;55.70;;;28.73;;
12493;SDS011;8260;51.422;6.786;2023-03-09T10:43:26;61.70;;;30.73;;
12493;SDS011;8260;51.422;6.786;2023-03-09T10:45:55;61.67;;;32.65;;
12493;SDS011;8260;51.422;6.786;2023-03-09T10:48:24;64.75;;;31.90;;
12493;SDS011;8260;51.422;6.786;2023-03-09T10:50:54;63.33;;;31.55;;
12493;SDS011;8260;51.422;6.786;2023-03-09T10:53:26;62.55;;;31.55;;
12493;SDS011;8260;51.422;6.786;2023-03-09T10:55:57;68.55;;;33.58;;
12493;SDS011;8260;51.422;6.786;2023-03-09T10:58:32;64.20;;;31.55;;
12493;SDS011;8260;51.422;6.786;2023-03-09T11:01:01;65.80;;;32.97;;
12493;SDS011;8260;51.422;6.786;2023-03-09T11:03:31;62.28;;;32.90;;
12493;SDS011;8260;51.422;6.786;2023-03-09T11:06:21;60.30;;;32.03;;
12493;SDS011;8260;51.422;6.786;2023-03-09T11:08:56;58.22;;;31.23;;
12493;SDS011;8260;51.422;6.786;2023-03-09T11:11:40;62.22;;;33.10;;
12493;SDS011;8260;51.422;6.786;2023-03-09T11:14:18;64.43;;;32.58;;
12493;SDS011;8260;51.422;6.786;2023-03-09T11:16:49;69.07;;;33.95;;
12493;SDS011;8260;51.422;6.786;2023-03-09T11:19:19;68.60;;;33.70;;
12493;SDS011;8260;51.422;6.786;2023-03-09T11:21:52;75.47;;;34.83;;
12493;SDS011;8260;51.422;6.786;2023-03-09T11:24:22;69.50;;;34.22;;
12493;SDS011;8260;51.422;6.786;2023-03-09T11:26:53;67.07;;;32.70;;
12493;SDS011;8260;51.422;6.786;2023-03-09T11:29:24;70.65;;;33.90;;
12493;SDS011;8260;51.422;6.786;2023-03-09T11:31:55;66.43;;;32.22;;
12493;SDS011;8260;51.422;6.786;2023-03-09T11:34:25;75.13;;;36.58;;
12493;SDS011;8260;51.422;6.786;2023-03-09T11:36:55;71.97;;;36.63;;
12493;SDS011;8260;51.422;6.786;2023-03-09T11:39:28;71.53;;;35.83;;
12493;SDS011;8260;51.422;6.786;2023-03-09T11:41:57;71.80;;;35.72;;
12493;SDS011;8260;51.422;6.786;2023-03-09T11:44:29;74.80;;;36.15;;
12493;SDS011;8260;51.422;6.786;2023-03-09T11:46:59;74.85;;;36.10;;
12493;SDS011;8260;51.422;6.786;2023-03-09T11:49:30;73.85;;;35.70;;
12493;SDS011;8260;51.422;6.786;2023-03-09T11:51:59;79.10;;;38.55;;
12493;SDS011;8260;51.422;6.786;2023-03-09T11:54:32;82.97;;;38.13;;
12493;SDS011;8260;51.422;6.786;2023-03-09T11:57:02;77.22;;;36.67;;
12493;SDS011;8260;51.422;6.786;2023-03-09T11:59:36;73.20;;;36.30;;
12493;SDS011;8260;51.422;6.786;2023-03-09T12:02:11;70.97;;;36.00;;
12493;SDS011;8260;51.422;6.786;2023-03-09T12:04:44;68.20;;;35.25;;
12493;SDS011;8260;51.422;6.786;2023-03-09T12:07:14;69.10;;;35.47;;
12493;SDS011;8260;51.422;6.786;2023-03-09T12:09:49;66.95;;;32.65;;
12493;SDS011;8260;51.422;6.786;2023-03-09T12:12:22;63.47;;;32.28;;
12493;SDS011;8260;51.422;6.786;2023-03-09T12:14:54;62.72;;;30.85;;
12493;SDS011;8260;51.422;6.786;2023-03-09T12:17:24;57.38;;;29.75;;
12493;SDS011;8260;51.422;6.786;2023-03-09T12:19:55;63.22;;;30.95;;
12493;SDS011;8260;51.422;6.786;2023-03-09T12:22:26;58.30;;;30.65;;
12493;SDS011;8260;51.422;6.786;2023-03-09T12:24:58;62.17;;;32.45;;
12493;SDS011;8260;51.422;6.786;2023-03-09T12:27:28;61.28;;;33.30;;
12493;SDS011;8260;51.422;6.786;2023-03-09T12:30:05;64.72;;;32.08;;
12493;SDS011;8260;51.422;6.786;2023-03-09T12:32:36;62.83;;;32.33;;
12493;SDS011;8260;51.422;6.786;2023-03-09T12:35:10;64.88;;;32.72;;
12493;SDS011;8260;51.422;6.786;2023-03-09T12:37:40;59.65;;;32.08;;
12493;SDS011;8260;51.422;6.786;2023-03-09T12:40:20;58.63;;;31.25;;
12493;SDS011;8260;51.422;6.786;2023-03-09T12:42:51;58.03;;;32.33;;
12493;SDS011;8260;51.422;6.786;2023-03-09T12:45:30;59.72;;;33.13;;
12493;SDS011;8260;51.422;6.786;2023-03-09T12:48:00;61.00;;;31.77;;
12493;SDS011;8260;51.422;6.786;2023-03-09T12:50:36;54.30;;;29.10;;
12493;SDS011;8260;51.422;6.786;2023-03-09T12:53:08;52.95;;;26.95;;
12493;SDS011;8260;51.422;6.786;2023-03-09T12:55:47;50.63;;;27.13;;
12493;SDS011;8260;51.422;6.786;2023-03-09T13:01:04;45.38;;;25.23;;
12493;SDS011;8260;51.422;6.786;2023-03-09T13:03:36;48.25;;;25.85;;
12493;SDS011;8260;51.422;6.786;2023-03-09T13:06:05;44.47;;;24.17;;
12493;SDS011;8260;51.422;6.786;2023-03-09T13:08:37;44.00;;;24.25;;
12493;SDS011;8260;51.422;6.786;2023-03-09T13:13:59;41.40;;;23.50;;
12493;SDS011;8260;51.422;6.786;2023-03-09T13:28:00;47.00;;;23.42;;
12493;SDS011;8260;51.422;6.786;2023-03-09T13:30:30;42.88;;;23.73;;
12493;SDS011;8260;51.422;6.786;2023-03-09T13:33:02;45.08;;;23.42;;
12493;SDS011;8260;51.422;6.786;2023-03-09T13:35:34;39.00;;;21.45;;
12493;SDS011;8260;51.422;6.786;2023-03-09T13:38:04;46.42;;;23.88;;
12493;SDS011;8260;51.422;6.786;2023-03-09T13:40:46;42.75;;;22.63;;
12493;SDS011;8260;51.422;6.786;2023-03-09T13:43:16;42.30;;;23.70;;
12493;SDS011;8260;51.422;6.786;2023-03-09T13:45:54;39.83;;;23.65;;
12493;SDS011;8260;51.422;6.786;2023-03-09T13:48:23;38.78;;;22.38;;
12493;SDS011;8260;51.422;6.786;2023-03-09T13:50:52;41.90;;;22.25;;
12493;SDS011;8260;51.422;6.786;2023-03-09T13:53:22;40.78;;;22.85;;
12493;SDS011;8260;51.422;6.786;2023-03-09T13:55:54;36.67;;;21.08;;
12493;SDS011;8260;51.422;6.786;2023-03-09T13:58:23;36.90;;;20.83;;
12493;SDS011;8260;51.422;6.786;2023-03-09T14:00:53;39.80;;;22.05;;
12493;SDS011;8260;51.422;6.786;2023-03-09T14:03:23;37.55;;;20.20;;
12493;SDS011;8260;51.422;6.786;2023-03-09T14:05:53;33.70;;;19.70;;
12493;SDS011;8260;51.422;6.786;2023-03-09T14:08:43;35.72;;;20.10;;
12493;SDS011;8260;51.422;6.786;2023-03-09T14:11:13;38.53;;;20.88;;
12493;SDS011;8260;51.422;6.786;2023-03-09T14:13:44;32.90;;;17.67;;
12493;SDS011;8260;51.422;6.786;2023-03-09T14:16:15;35.60;;;19.98;;
12493;SDS011;8260;51.422;6.786;2023-03-09T14:18:47;33.95;;;18.40;;
12493;SDS011;8260;51.422;6.786;2023-03-09T14:21:21;36.55;;;19.95;;
12493;SDS011;8260;51.422;6.786;2023-03-09T14:23:50;37.78;;;21.33;;
12493;SDS011;8260;51.422;6.786;2023-03-09T14:26:22;38.92;;;21.20;;
12493;SDS011;8260;51.422;6.786;2023-03-09T14:28:58;36.03;;;20.20;;
12493;SDS011;8260;51.422;6.786;2023-03-09T14:31:27;34.78;;;19.85;;
12493;SDS011;8260;51.422;6.786;2023-03-09T14:33:58;33.28;;;19.48;;
12493;SDS011;8260;51.422;6.786;2023-03-09T14:36:28;33.85;;;19.08;;
12493;SDS011;8260;51.422;6.786;2023-03-09T14:38:58;37.35;;;20.70;;
12493;SDS011;8260;51.422;6.786;2023-03-09T14:41:27;36.33;;;22.25;;
12493;SDS011;8260;51.422;6.786;2023-03-09T14:43:56;38.53;;;22.23;;
12493;SDS011;8260;51.422;6.786;2023-03-09T14:46:26;29.30;;;18.67;;
12493;SDS011;8260;51.422;6.786;2023-03-09T14:48:56;37.13;;;20.90;;
12493;SDS011;8260;51.422;6.786;2023-03-09T14:51:28;46.88;;;26.27;;
12493;SDS011;8260;51.422;6.786;2023-03-09T14:53:58;53.40;;;29.65;;
12493;SDS011;8260;51.422;6.786;2023-03-09T14:56:28;53.22;;;30.77;;
12493;SDS011;8260;51.422;6.786;2023-03-09T14:58:57;41.42;;;23.48;;
12493;SDS011;8260;51.422;6.786;2023-03-09T15:01:27;40.10;;;23.02;;
12493;SDS011;8260;51.422;6.786;2023-03-09T15:03:56;33.55;;;19.42;;
12493;SDS011;8260;51.422;6.786;2023-03-09T15:06:25;32.13;;;18.10;;
12493;SDS011;8260;51.422;6.786;2023-03-09T15:08:55;30.52;;;17.60;;